Time;durP1;ratioP1;P1;durP2;ratioP2;P2;SDS_P1;SDS_P2;PMS_P1;PMS_P2;Temp;Humidity;BMP_temperature;BMP_pressure;BME280_temperature;BME280_humidity;BME280_pressure;Samples;Min_cycle;Max_cycle;Signal;HPM_P1;HPM_P2
2021/10/31 00:01:19;;;;;;;6.45;3.10;;;;;;;11.16;100.00;100350.84;6304994;28;20511;-80
2021/10/31 00:04:20;;;;;;;4.88;2.65;;;;;;;11.20;100.00;100345.41;6305789;28;20052;-80
2021/10/31 00:07:21;;;;;;;6.50;3.28;;;;;;;11.15;100.00;100364.97;6302732;28;20056;-80
2021/10/31 00:10:24;;;;;;;7.20;2.60;;;;;;;11.18;100.00;100372.66;6302704;28;20044;-80
2021/10/31 00:13:26;;;;;;;4.80;2.95;;;;;;;11.23;100.00;100371.53;6301180;28;20044;-80
2021/10/31 00:16:27;;;;;;;4.68;2.72;;;;;;;11.20;100.00;100372.56;6301144;28;20053;-80
2021/10/31 00:19:29;;;;;;;5.78;2.78;;;;;;;11.18;100.00;100382.34;6302272;28;20049;-80
2021/10/31 00:22:30;;;;;;;5.22;3.15;;;;;;;11.18;100.00;100382.34;6304307;28;20040;-80
2021/10/31 00:25:33;;;;;;;5.80;2.75;;;;;;;11.26;100.00;100379.22;6304932;28;20530;-79
2021/10/31 00:28:34;;;;;;;6.00;3.00;;;;;;;11.25;100.00;100382.78;6306385;28;20396;-81
2021/10/31 00:31:36;;;;;;;3.00;2.45;;;;;;;11.20;100.00;100388.34;6306449;28;20063;-81
2021/10/31 00:34:37;;;;;;;6.00;3.55;;;;;;;11.22;100.00;100396.13;6283995;28;20545;-81
2021/10/31 00:37:38;;;;;;;5.30;2.92;;;;;;;11.21;100.00;100397.91;6304949;28;20055;-79
2021/10/31 00:40:43;;;;;;;10.27;3.08;;;;;;;11.23;100.00;100400.47;6304431;28;20474;-80
2021/10/31 00:43:45;;;;;;;6.25;2.70;;;;;;;11.25;100.00;100409.09;6303136;28;20060;-80
2021/10/31 00:46:46;;;;;;;5.50;2.72;;;;;;;11.25;100.00;100401.22;6304322;28;20048;-81
2021/10/31 00:49:47;;;;;;;4.65;3.00;;;;;;;11.29;100.00;100394.81;6305041;28;20048;-80
2021/10/31 00:52:49;;;;;;;6.13;2.92;;;;;;;11.28;100.00;100396.59;6303942;28;20056;-80
2021/10/31 00:55:51;;;;;;;3.38;2.20;;;;;;;11.29;100.00;100397.44;6301618;28;20458;-80
2021/10/31 00:58:54;;;;;;;7.00;2.58;;;;;;;11.31;100.00;100393.81;6304231;28;20049;-80
2021/10/31 01:01:57;;;;;;;3.35;2.33;;;;;;;11.29;100.00;100400.09;6307817;28;20067;-80
2021/10/31 01:05:03;;;;;;;6.38;3.13;;;;;;;11.27;100.00;100400.19;6331885;28;20423;-80
2021/10/31 01:08:23;;;;;;;6.47;2.65;;;;;;;11.29;100.00;100403.56;6333268;28;20051;-81
2021/10/31 01:11:43;;;;;;;5.28;2.40;;;;;;;11.31;100.00;100401.69;6332188;28;20052;-80
2021/10/31 01:15:00;;;;;;;5.78;2.78;;;;;;;11.29;100.00;100400.94;6331985;28;20060;-80
2021/10/31 01:18:18;;;;;;;8.00;3.53;;;;;;;11.34;100.00;100401.47;6332364;28;20107;-79
2021/10/31 01:21:32;;;;;;;3.35;2.00;;;;;;;11.30;100.00;100405.25;6332849;28;20055;-81
2021/10/31 01:24:51;;;;;;;8.93;3.67;;;;;;;11.26;100.00;100401.09;6331865;28;20388;-80
2021/10/31 01:27:59;;;;;;;;;;;;;;;11.25;100.00;100406.47;6332246;28;20506;-79
2021/10/31 01:31:13;;;;;;;6.38;3.38;;;;;;;11.23;100.00;100405.72;6331311;28;20012;-80
2021/10/31 01:34:20;;;;;;;4.13;2.50;;;;;;;11.27;100.00;100405.44;6314528;28;20045;-80
2021/10/31 01:37:29;;;;;;;6.07;3.25;;;;;;;11.32;100.00;100408.63;6309075;28;20052;-80
2021/10/31 01:40:42;;;;;;;7.05;3.08;;;;;;;11.30;100.00;100412.28;6307547;28;20124;-80
2021/10/31 01:43:54;;;;;;;7.78;3.20;;;;;;;11.28;100.00;100414.19;6306152;28;20064;-81
2021/10/31 01:47:03;;;;;;;4.57;2.95;;;;;;;11.25;100.00;100420.47;6306252;28;20446;-80
2021/10/31 01:50:11;;;;;;;4.70;3.00;;;;;;;11.27;100.00;100425.66;6308943;28;20048;-81
2021/10/31 01:53:18;;;;;;;6.03;3.17;;;;;;;11.23;100.00;100421.50;6307772;28;20052;-80
2021/10/31 01:56:20;;;;;;;5.68;2.33;;;;;;;11.20;100.00;100429.59;6316128;28;20044;-81
2021/10/31 01:59:28;;;;;;;7.35;3.50;;;;;;;11.13;100.00;100431.75;6321567;28;20049;-81
2021/10/31 02:02:30;;;;;;;5.53;3.33;;;;;;;11.06;100.00;100431.25;6326817;28;20049;-81
2021/10/31 02:05:36;;;;;;;6.57;2.92;;;;;;;10.99;100.00;100432.59;6313723;28;20053;-80
2021/10/31 02:08:40;;;;;;;6.47;3.20;;;;;;;10.95;100.00;100440.75;6305407;28;20053;-80
2021/10/31 02:11:44;;;;;;;4.65;2.60;;;;;;;10.88;100.00;100438.47;6304988;28;20404;-80
2021/10/31 02:14:48;;;;;;;8.75;3.03;;;;;;;10.81;100.00;100445.03;6307127;28;20060;-80
2021/10/31 02:17:54;;;;;;;5.68;2.78;;;;;;;10.75;100.00;100448.00;6307962;28;20416;-80
2021/10/31 02:20:59;;;;;;;6.18;3.15;;;;;;;10.74;100.00;100450.75;6307682;28;20045;-80
2021/10/31 02:24:03;;;;;;;9.25;3.42;;;;;;;10.72;100.00;100453.47;6306223;28;20058;-80
2021/10/31 02:27:12;;;;;;;5.35;2.63;;;;;;;10.75;100.00;100455.91;6305302;28;20052;-80
2021/10/31 02:30:14;;;;;;;4.68;2.63;;;;;;;10.75;100.00;100455.91;6307486;28;20084;-80
2021/10/31 02:33:15;;;;;;;8.10;3.78;;;;;;;10.79;100.00;100451.31;6305059;28;20060;-80
2021/10/31 02:36:17;;;;;;;5.05;3.47;;;;;;;10.78;100.00;100457.50;6302423;28;20507;-79
2021/10/31 02:39:19;;;;;;;4.80;3.25;;;;;;;10.77;100.00;100451.41;6302753;28;20408;-79
2021/10/31 02:42:21;;;;;;;6.05;3.22;;;;;;;10.79;100.00;100462.66;6302401;28;20064;-79
2021/10/31 02:45:22;;;;;;;5.93;2.80;;;;;;;10.78;100.00;100468.03;6302878;28;20510;-80
2021/10/31 02:48:24;;;;;;;5.38;2.95;;;;;;;10.77;100.00;100468.97;6302015;28;20048;-80
2021/10/31 02:51:39;;;;;;;5.30;2.55;;;;;;;10.79;100.00;100457.41;6302817;28;20060;-80
2021/10/31 02:54:52;;;;;;;7.07;3.45;;;;;;;10.74;100.00;100464.72;6301853;28;20114;-80
2021/10/31 02:57:57;;;;;;;6.65;3.63;;;;;;;10.73;100.00;100473.56;6301745;28;20189;-80
2021/10/31 03:01:02;;;;;;;5.88;3.28;;;;;;;10.72;100.00;100469.25;6302846;28;20049;-79
2021/10/31 03:04:04;;;;;;;6.15;3.42;;;;;;;10.69;100.00;100469.41;6302619;28;20044;-79
2021/10/31 03:07:06;;;;;;;8.75;3.55;;;;;;;10.66;100.00;100470.41;6302912;28;20122;-80
2021/10/31 03:10:09;;;;;;;7.18;3.08;;;;;;;10.59;100.00;100463.00;6302972;28;20044;-80
2021/10/31 03:13:11;;;;;;;5.88;3.28;;;;;;;10.56;100.00;100471.91;6303112;28;20104;-80
2021/10/31 03:16:12;;;;;;;8.38;3.28;;;;;;;10.55;100.00;100475.47;6303705;28;20396;-80
2021/10/31 03:19:14;;;;;;;7.07;3.65;;;;;;;10.53;100.00;100481.72;6303968;28;20044;-80
2021/10/31 03:22:16;;;;;;;6.43;2.97;;;;;;;10.53;100.00;100493.09;6303181;28;20052;-80
2021/10/31 03:25:19;;;;;;;5.80;2.90;;;;;;;10.58;100.00;100488.44;6303193;28;20053;-80
2021/10/31 03:28:20;;;;;;;5.22;3.22;;;;;;;10.57;100.00;100489.34;6300415;22;20507;-77
2021/10/31 03:31:22;;;;;;;6.57;3.22;;;;;;;10.60;100.00;100493.59;6271874;28;20049;-76
2021/10/31 03:34:23;;;;;;;4.32;2.58;;;;;;;10.60;100.00;100490.97;6284206;28;20064;-76
2021/10/31 03:37:24;;;;;;;5.63;2.67;;;;;;;10.60;100.00;100504.09;6280756;28;20056;-77
2021/10/31 03:40:27;;;;;;;5.35;3.22;;;;;;;10.57;100.00;100499.00;6271566;28;20055;-76
2021/10/31 03:43:28;;;;;;;6.80;3.10;;;;;;;10.53;100.00;100500.13;6276608;28;20045;-76
2021/10/31 03:46:30;;;;;;;4.60;2.92;;;;;;;10.47;100.00;100493.44;6269947;28;20049;-77
2021/10/31 03:49:32;;;;;;;5.32;3.33;;;;;;;10.46;100.00;100498.78;6274159;28;20055;-77
2021/10/31 03:52:33;;;;;;;6.35;3.45;;;;;;;10.47;100.00;100503.94;6269477;28;20055;-77
2021/10/31 03:55:36;;;;;;;6.85;3.45;;;;;;;10.44;100.00;100506.75;6268753;28;20048;-77
2021/10/31 03:58:37;;;;;;;8.63;3.63;;;;;;;10.43;100.00;100512.94;6271118;28;20135;-76
2021/10/31 04:01:39;;;;;;;5.07;2.78;;;;;;;10.43;100.00;100493.69;6271335;28;20057;-77
2021/10/31 04:04:40;;;;;;;6.65;3.22;;;;;;;10.42;100.00;100498.13;6271034;28;20045;-77
2021/10/31 04:07:43;;;;;;;4.70;2.53;;;;;;;10.45;100.00;100500.56;6270494;28;20037;-76
2021/10/31 04:10:46;;;;;;;5.95;3.00;;;;;;;10.54;100.00;100509.72;6275337;28;20128;-77
2021/10/31 04:13:47;;;;;;;6.07;3.58;;;;;;;10.56;100.00;100515.72;6270771;28;20059;-77
2021/10/31 04:16:49;;;;;;;10.88;3.65;;;;;;;10.49;100.00;100507.34;6271002;28;20538;-77
2021/10/31 04:19:52;;;;;;;7.10;3.25;;;;;;;10.50;100.00;100505.56;6270965;28;20053;-76
2021/10/31 04:22:53;;;;;;;5.20;3.00;;;;;;;10.54;100.00;100512.34;6271031;28;20060;-77
2021/10/31 04:25:56;;;;;;;6.82;3.70;;;;;;;10.47;100.00;100506.56;6270544;28;20045;-76
2021/10/31 04:28:57;;;;;;;7.55;2.70;;;;;;;10.46;100.00;100520.66;6271431;28;20056;-77
2021/10/31 04:31:58;;;;;;;8.13;3.63;;;;;;;10.43;100.00;100515.56;6271147;28;20489;-77
2021/10/31 04:35:00;;;;;;;7.68;3.20;;;;;;;10.44;100.00;100516.41;6278229;28;20074;-77
2021/10/31 04:38:09;;;;;;;7.30;3.55;;;;;;;10.43;100.00;100515.56;6274980;28;20037;-76
2021/10/31 04:41:11;;;;;;;8.52;3.22;;;;;;;10.41;100.00;100512.19;6265460;28;20056;-77
2021/10/31 04:44:13;;;;;;;5.65;2.92;;;;;;;10.38;100.00;100514.97;6279925;28;20045;-77
2021/10/31 04:47:15;;;;;;;6.53;3.47;;;;;;;10.37;100.00;100524.63;6273711;28;20531;-77
2021/10/31 04:50:16;;;;;;;5.35;3.05;;;;;;;10.37;100.00;100522.00;6272813;28;20041;-76
2021/10/31 04:53:17;;;;;;;5.95;3.25;;;;;;;10.39;100.00;100522.75;6274532;28;20068;-76
2021/10/31 04:56:22;;;;;;;6.60;2.92;;;;;;;10.39;100.00;100520.13;6273463;28;20486;-76
2021/10/31 04:59:24;;;;;;;6.22;2.75;;;;;;;10.38;100.00;100521.06;6275055;28;20044;-76
2021/10/31 05:02:26;;;;;;;7.72;3.58;;;;;;;10.32;100.00;100516.19;6271912;28;20049;-76
2021/10/31 05:05:27;;;;;;;7.28;3.30;;;;;;;10.28;100.00;100514.66;6273915;28;20052;-76
2021/10/31 05:08:29;;;;;;;5.50;3.25;;;;;;;10.25;100.00;100509.56;6274631;28;20531;-77
2021/10/31 05:11:31;;;;;;;5.28;3.08;;;;;;;10.21;100.00;100500.13;6272743;28;20057;-76
2021/10/31 05:14:33;;;;;;;6.18;3.00;;;;;;;10.18;100.00;100500.31;6273929;28;20052;-77
2021/10/31 05:17:35;;;;;;;6.85;3.17;;;;;;;10.15;100.00;100513.59;6273438;28;20048;-77
2021/10/31 05:20:36;;;;;;;5.72;2.97;;;;;;;10.13;100.00;100505.81;6274098;28;20049;-76
2021/10/31 05:23:37;;;;;;;6.57;3.28;;;;;;;10.12;100.00;100509.34;6274162;28;20049;-77
2021/10/31 05:26:40;;;;;;;5.55;3.13;;;;;;;10.11;100.00;100510.28;6274151;28;20424;-77
2021/10/31 05:29:41;;;;;;;7.72;3.40;;;;;;;10.12;100.00;100504.09;6273874;28;20045;-77
2021/10/31 05:32:43;;;;;;;6.47;3.40;;;;;;;10.13;100.00;100518.09;6274903;28;20053;-76
2021/10/31 05:35:44;;;;;;;7.78;3.65;;;;;;;10.14;100.00;100519.78;6274103;28;20048;-77
2021/10/31 05:38:46;;;;;;;5.93;3.60;;;;;;;10.11;100.00;100514.69;6273684;28;20065;-76
2021/10/31 05:41:49;;;;;;;8.02;3.53;;;;;;;10.15;100.00;100521.47;6274351;28;20081;-76
2021/10/31 05:44:50;;;;;;;6.45;3.42;;;;;;;10.13;100.00;100528.63;6271523;28;20064;-77
2021/10/31 05:47:53;;;;;;;6.95;4.18;;;;;;;10.10;100.00;100523.50;6268691;28;20060;-77
2021/10/31 05:50:55;;;;;;;6.90;4.05;;;;;;;10.07;100.00;100516.63;6273232;28;20089;-76
2021/10/31 05:53:57;;;;;;;6.70;3.63;;;;;;;10.07;100.00;100515.78;6272571;28;20044;-78
2021/10/31 05:57:00;;;;;;;7.15;3.70;;;;;;;10.05;100.00;100515.06;6272077;28;20199;-75
2021/10/31 06:00:05;;;;;;;8.73;3.55;;;;;;;10.03;100.00;100512.47;6268937;28;20067;-76
2021/10/31 06:03:06;;;;;;;6.63;3.55;;;;;;;10.05;100.00;100522.94;6272482;28;20055;-76
2021/10/31 06:06:08;;;;;;;9.07;4.57;;;;;;;10.04;100.00;100518.63;6271869;28;20056;-76
2021/10/31 06:09:09;;;;;;;8.13;4.20;;;;;;;10.01;100.00;100522.25;6272206;28;20045;-76
2021/10/31 06:12:12;;;;;;;13.45;4.25;;;;;;;10.04;100.00;100513.38;6269686;28;20052;-77
2021/10/31 06:15:15;;;;;;;8.80;3.80;;;;;;;10.02;100.00;100521.31;6267056;28;20052;-76
2021/10/31 06:18:16;;;;;;;6.60;3.30;;;;;;;10.03;100.00;100523.00;6272946;28;20041;-78
2021/10/31 06:21:18;;;;;;;8.25;3.58;;;;;;;9.99;100.00;100521.50;6273399;28;20559;-76
2021/10/31 06:24:19;;;;;;;7.50;3.88;;;;;;;9.99;100.00;100521.50;6273263;28;20055;-76
2021/10/31 06:27:22;;;;;;;6.75;3.78;;;;;;;9.98;100.00;100526.81;6272831;28;20159;-79
2021/10/31 06:30:23;;;;;;;7.55;4.00;;;;;;;9.97;100.00;100527.75;6273057;28;20041;-77
2021/10/31 06:33:25;;;;;;;7.80;3.97;;;;;;;9.96;100.00;100529.53;6272820;28;20060;-78
2021/10/31 06:36:27;;;;;;;6.57;3.88;;;;;;;9.95;100.00;100532.22;6271136;28;20044;-75
2021/10/31 06:39:28;;;;;;;9.43;3.72;;;;;;;9.93;100.00;100526.22;6269712;28;20053;-76
2021/10/31 06:42:31;;;;;;;8.77;4.15;;;;;;;9.93;100.00;100524.44;6269601;28;20044;-78
2021/10/31 06:45:32;;;;;;;8.45;3.80;;;;;;;9.91;100.00;100528.94;6272357;28;20053;-76
2021/10/31 06:48:34;;;;;;;6.50;4.38;;;;;;;9.88;100.00;100529.94;6272833;28;20049;-76
2021/10/31 06:51:35;;;;;;;10.73;4.45;;;;;;;9.91;100.00;100532.41;6272633;28;20049;-76
2021/10/31 06:54:37;;;;;;;9.82;4.88;;;;;;;9.93;100.00;100536.72;6272434;28;20045;-76
2021/10/31 06:57:40;;;;;;;8.75;4.05;;;;;;;9.95;100.00;100534.84;6272415;28;20053;-77
2021/10/31 07:00:42;;;;;;;8.18;4.57;;;;;;;9.98;100.00;100532.06;6272228;28;20045;-77
2021/10/31 07:03:45;;;;;;;8.80;4.53;;;;;;;10.03;100.00;100527.41;6272245;28;20060;-77
2021/10/31 07:06:47;;;;;;;8.38;4.68;;;;;;;9.99;100.00;100529.38;6272954;28;20049;-76
2021/10/31 07:09:48;;;;;;;7.22;3.58;;;;;;;10.00;100.00;100533.69;6272380;28;20508;-78
2021/10/31 07:12:51;;;;;;;9.52;4.28;;;;;;;10.03;100.00;100530.88;6272160;28;20052;-78
2021/10/31 07:15:54;;;;;;;7.57;4.18;;;;;;;10.04;100.00;100529.13;6270016;28;20052;-77
2021/10/31 07:18:56;;;;;;;8.45;4.43;;;;;;;10.04;100.00;100526.50;6272030;28;20045;-76
2021/10/31 07:21:58;;;;;;;11.00;4.15;;;;;;;10.06;100.00;100532.50;6272421;28;20175;-75
2021/10/31 07:25:00;;;;;;;8.35;4.32;;;;;;;10.08;100.00;100542.00;6271652;28;20045;-76
2021/10/31 07:28:03;;;;;;;8.10;3.63;;;;;;;10.08;100.00;100536.75;6272282;28;20071;-76
2021/10/31 07:31:09;;;;;;;9.60;3.65;;;;;;;10.19;100.00;100533.50;6272387;28;20053;-79
2021/10/31 07:34:12;;;;;;;10.07;4.25;;;;;;;10.18;100.00;100542.34;6270219;28;20393;-76
2021/10/31 07:37:13;;;;;;;6.25;3.38;;;;;;;10.26;100.00;100541.91;6270943;28;20051;-76
2021/10/31 07:40:15;;;;;;;6.40;3.88;;;;;;;10.26;100.00;100524.38;6271708;28;20044;-78
2021/10/31 07:43:17;;;;;;;7.10;4.20;;;;;;;10.31;100.00;100525.00;6272427;28;20052;-78
2021/10/31 07:46:19;;;;;;;7.47;3.72;;;;;;;10.36;100.00;100522.97;6271393;28;20060;-75
2021/10/31 07:49:20;;;;;;;7.75;3.78;;;;;;;10.49;100.00;100528.38;6271652;28;20508;-76
2021/10/31 07:52:22;;;;;;;8.18;4.20;;;;;;;10.53;100.00;100529.03;6264170;28;20053;-75
2021/10/31 07:55:29;;;;;;;7.38;3.35;;;;;;;10.57;100.00;100531.38;6263528;28;20424;-76
2021/10/31 07:58:32;;;;;;;7.18;3.70;;;;;;;10.64;100.00;100529.28;6270908;28;20049;-76
2021/10/31 08:01:33;;;;;;;7.43;3.72;;;;;;;10.67;100.00;100513.31;6271577;28;20049;-80
2021/10/31 08:04:35;;;;;;;6.68;3.25;;;;;;;10.71;100.00;100514.00;6271131;28;20049;-77
2021/10/31 08:07:36;;;;;;;8.15;3.72;;;;;;;10.76;100.00;100506.69;6275661;28;20049;-76
2021/10/31 08:10:38;;;;;;;5.78;3.75;;;;;;;10.85;100.00;100493.84;6276387;28;20437;-76
2021/10/31 08:13:41;;;;;;;7.82;3.72;;;;;;;10.89;100.00;100495.34;6276107;28;20060;-75
2021/10/31 08:16:42;;;;;;;9.65;4.25;;;;;;;10.90;100.00;100501.47;6276045;28;20139;-79
2021/10/31 08:19:44;;;;;;;9.63;4.32;;;;;;;10.94;100.00;100508.22;6275948;28;20056;-76
2021/10/31 08:22:45;;;;;;;11.70;5.10;;;;;;;10.98;100.00;100496.59;6276293;28;20053;-76
2021/10/31 08:25:48;;;;;;;13.93;4.60;;;;;;;11.06;100.00;100494.38;6274773;28;20393;-76
2021/10/31 08:28:51;;;;;;;10.32;4.63;;;;;;;11.13;100.00;100481.72;6276246;28;20056;-76
2021/10/31 08:31:55;;;;;;;10.15;4.65;;;;;;;11.21;100.00;100475.97;6275959;28;20484;-76
2021/10/31 08:34:57;;;;;;;9.63;4.75;;;;;;;11.23;100.00;100477.59;6276592;28;20049;-76
2021/10/31 08:37:58;;;;;;;11.75;5.32;;;;;;;11.27;100.00;100475.63;6300769;28;20051;-76
2021/10/31 08:41:00;;;;;;;10.43;4.53;;;;;;;11.26;100.00;100468.66;6300677;28;20044;-76
2021/10/31 08:44:05;;;;;;;10.45;5.78;;;;;;;11.30;100.00;100473.63;6291741;28;20507;-76
2021/10/31 08:47:06;;;;;;;11.27;5.65;;;;;;;11.33;100.00;100475.25;6275178;28;20060;-76
2021/10/31 08:50:08;;;;;;;11.07;4.97;;;;;;;11.36;100.00;100470.66;6271980;28;20041;-76
2021/10/31 08:53:11;;;;;;;13.77;5.72;;;;;;;11.36;100.00;100448.75;6271478;28;20049;-76
2021/10/31 08:56:13;;;;;;;7.63;4.47;;;;;;;11.38;100.00;100452.13;6264887;28;20635;-76
2021/10/31 08:59:16;;;;;;;13.18;5.68;;;;;;;11.44;100.00;100441.22;6275038;28;20491;-76
2021/10/31 09:02:17;;;;;;;11.40;5.00;;;;;;;11.51;100.00;100452.22;6274999;28;20052;-76
2021/10/31 09:05:19;;;;;;;9.20;4.82;;;;;;;11.58;100.00;100449.13;6275264;28;20052;-76
2021/10/31 09:08:21;;;;;;;10.57;5.35;;;;;;;11.66;100.00;100446.84;6268874;28;20052;-75
2021/10/31 09:11:22;;;;;;;11.45;4.95;;;;;;;11.69;100.00;100446.66;6274953;28;20045;-74
2021/10/31 09:14:25;;;;;;;10.75;5.07;;;;;;;11.76;100.00;100455.00;6273702;28;20056;-75
2021/10/31 09:17:26;;;;;;;9.65;4.95;;;;;;;11.80;100.00;100448.59;6274279;28;20052;-74
2021/10/31 09:20:29;;;;;;;10.23;5.15;;;;;;;11.89;100.00;100441.94;6271164;28;20049;-75
2021/10/31 09:23:31;;;;;;;13.18;6.00;;;;;;;11.99;100.00;100431.66;6273896;28;20049;-74
2021/10/31 09:26:33;;;;;;;11.68;4.95;;;;;;;12.05;100.00;100421.59;6274326;28;20056;-75
2021/10/31 09:29:35;;;;;;;10.48;4.68;;;;;;;12.14;100.00;100428.91;6274364;28;20052;-75
2021/10/31 09:32:49;;;;;;;10.45;5.70;;;;;;;12.15;100.00;100433.22;6274343;28;20049;-75
2021/10/31 09:35:52;;;;;;;9.73;4.53;;;;;;;12.21;100.00;100421.44;6283875;28;20093;-75
2021/10/31 09:38:54;;;;;;;11.48;4.82;;;;;;;12.27;100.00;100410.50;6274440;28;20049;-75
2021/10/31 09:41:56;;;;;;;8.70;4.20;;;;;;;12.35;100.00;100407.34;6274506;28;20099;-75
2021/10/31 09:44:58;;;;;;;11.32;4.80;;;;;;;12.36;100.00;100406.41;6273157;28;20045;-75
2021/10/31 09:48:02;;;;;;;9.50;5.15;;;;;;;12.37;100.00;100414.22;6261632;28;20057;-76
2021/10/31 09:51:05;;;;;;;9.48;4.85;;;;;;;12.41;100.00;100420.13;6273820;28;20049;-77
2021/10/31 09:54:06;;;;;;;7.80;4.32;;;;;;;12.50;100.00;100421.31;6273291;28;20045;-76
2021/10/31 09:57:08;;;;;;;10.00;5.28;;;;;;;12.53;100.00;100408.75;6273496;28;20393;-75
2021/10/31 10:00:13;;;;;;;9.57;4.93;;;;;;;12.61;100.00;100414.38;6273953;28;20095;-75
2021/10/31 10:03:24;;;;;;;8.90;4.88;;;;;;;12.66;100.00;100411.41;6267786;28;20053;-77
2021/10/31 10:06:28;;;;;;;10.55;4.95;;;;;;;12.76;100.00;100412.47;6274443;28;20053;-76
2021/10/31 10:09:30;;;;;;;8.35;4.70;;;;;;;12.90;100.00;100419.47;6272954;28;20075;-76
2021/10/31 10:12:32;;;;;;;10.38;4.10;;;;;;;12.98;100.00;100411.88;6272771;28;20053;-75
2021/10/31 10:15:35;;;;;;;7.18;4.97;;;;;;;13.16;100.00;100407.13;6270282;28;20056;-76
2021/10/31 10:18:36;;;;;;;9.35;4.28;;;;;;;13.31;100.00;100399.97;6272751;28;20397;-76
2021/10/31 10:21:37;;;;;;;9.18;4.18;;;;;;;13.30;100.00;100398.25;6273106;28;20052;-77
2021/10/31 10:24:41;;;;;;;7.22;4.28;;;;;;;13.30;100.00;100385.91;6272312;28;20048;-75
2021/10/31 10:27:51;;;;;;;6.25;3.92;;;;;;;13.34;100.00;100383.91;6272889;28;20059;-75
2021/10/31 10:31:15;;;;;;;6.47;3.92;;;;;;;13.44;100.00;100380.53;6272364;28;20496;-76
2021/10/31 10:34:16;;;;;;;9.05;3.78;;;;;;;13.59;100.00;100377.75;6265924;28;20053;-75
2021/10/31 10:37:20;;;;;;;8.07;3.63;;;;;;;13.67;100.00;100380.66;6272608;28;20064;-75
2021/10/31 10:40:24;;;;;;;6.78;3.70;;;;;;;13.76;100.00;100364.13;6272579;28;20045;-75
2021/10/31 10:43:31;;;;;;;5.78;3.53;;;;;;;13.71;100.00;100347.78;6270526;28;20154;-76
2021/10/31 10:46:36;;;;;;;5.38;3.10;;;;;;;13.68;100.00;100348.88;6272647;28;20048;-75
2021/10/31 10:49:40;;;;;;;5.88;3.20;;;;;;;13.71;100.00;100350.41;6269330;28;20049;-75
2021/10/31 10:52:43;;;;;;;5.50;2.95;;;;;;;13.73;100.00;100329.22;6272363;28;20044;-75
2021/10/31 10:55:45;;;;;;;5.57;2.92;;;;;;;13.77;100.00;100326.22;6271723;28;20056;-76
2021/10/31 10:58:51;;;;;;;6.43;2.83;;;;;;;13.85;100.00;100337.09;6272350;28;20049;-75
2021/10/31 11:02:10;;;;;;;6.38;2.83;;;;;;;13.89;100.00;100346.44;6272348;28;20052;-74
2021/10/31 11:05:13;;;;;;;4.07;2.92;;;;;;;13.99;100.00;100343.97;6268353;28;20048;-74
2021/10/31 11:08:16;;;;;;;4.22;2.53;;;;;;;14.05;100.00;100327.66;6271883;28;20419;-74
2021/10/31 11:11:18;;;;;;;3.20;2.00;;;;;;;14.19;100.00;100324.81;6271848;28;20052;-74
2021/10/31 11:14:20;;;;;;;6.43;3.30;;;;;;;14.36;100.00;100320.91;6294833;22;20040;-81
2021/10/31 11:17:23;;;;;;;6.03;3.05;;;;;;;14.64;100.00;100316.19;6267676;28;20057;-81
2021/10/31 11:20:27;;;;;;;4.63;2.72;;;;;;;14.80;100.00;100307.91;6282482;28;20601;-81
2021/10/31 11:23:30;;;;;;;3.88;2.58;;;;;;;14.87;98.92;100299.38;6271127;28;20057;-81
2021/10/31 11:26:38;;;;;;;3.42;2.65;;;;;;;14.86;97.99;100288.91;6252011;28;20485;-81
2021/10/31 11:29:40;;;;;;;4.32;2.70;;;;;;;14.86;97.67;100289.75;6254138;28;20053;-78
2021/10/31 11:32:43;;;;;;;5.45;2.40;;;;;;;14.95;100.00;100280.25;6264719;28;20049;-78
2021/10/31 11:35:45;;;;;;;5.00;2.53;;;;;;;14.95;98.53;100278.44;6265672;28;20049;-78
2021/10/31 11:38:47;;;;;;;5.40;2.78;;;;;;;14.85;96.83;100269.56;6253236;28;20056;-78
2021/10/31 11:41:49;;;;;;;5.22;3.15;;;;;;;14.78;97.70;100265.69;6252628;28;20053;-78
2021/10/31 11:45:03;;;;;;;3.03;2.33;;;;;;;14.61;99.00;100261.72;6254083;28;20041;-78
2021/10/31 11:48:16;;;;;;;5.60;2.72;;;;;;;14.63;100.00;100261.63;6272585;28;20048;-78
2021/10/31 11:51:18;;;;;;;4.10;2.40;;;;;;;14.71;100.00;100251.25;6280075;28;20053;-78
2021/10/31 11:54:20;;;;;;;4.97;3.08;;;;;;;14.82;100.00;100238.03;6282195;28;20083;-79
2021/10/31 11:57:25;;;;;;;5.18;3.03;;;;;;;14.69;100.00;100234.69;6264763;28;20045;-79
2021/10/31 12:00:27;;;;;;;3.92;2.35;;;;;;;14.70;100.00;100229.25;6261485;28;20045;-79
2021/10/31 12:03:47;;;;;;;7.82;2.10;;;;;;;14.92;99.13;100235.50;6293641;28;20053;-79
2021/10/31 12:06:51;;;;;;;4.63;2.42;;;;;;;15.13;95.92;100222.38;6294820;28;20134;-79
2021/10/31 12:09:56;;;;;;;3.67;2.22;;;;;;;15.05;97.61;100211.56;6304376;28;20048;-79
2021/10/31 12:13:11;;;;;;;3.65;2.28;;;;;;;15.05;99.17;100208.91;6279036;28;20052;-79
2021/10/31 12:16:14;;;;;;;5.43;2.67;;;;;;;15.12;97.74;100199.50;6274475;28;20060;-79
2021/10/31 12:19:17;;;;;;;5.00;2.20;;;;;;;15.12;98.15;100196.84;6271297;28;20051;-79
2021/10/31 12:22:21;;;;;;;10.73;5.65;;;;;;;15.26;97.51;100187.78;6274460;28;20048;-78
2021/10/31 12:25:39;;;;;;;5.82;2.88;;;;;;;15.22;96.74;100190.69;6279701;28;20052;-79
2021/10/31 12:28:43;;;;;;;2.93;2.07;;;;;;;15.31;95.76;100186.47;6289831;28;20060;-79
2021/10/31 12:31:53;;;;;;;4.38;2.03;;;;;;;15.40;96.43;100184.88;6288066;28;20045;-79
2021/10/31 12:34:57;;;;;;;2.80;2.10;;;;;;;15.43;94.60;100184.59;6287901;28;20049;-79
2021/10/31 12:38:30;;;;;;;4.55;2.00;;;;;;;15.34;96.75;100175.59;6287347;28;20052;-78
2021/10/31 12:41:35;;;;;;;1.95;1.63;;;;;;;15.40;97.55;100167.16;6273811;28;20064;-78
2021/10/31 12:44:37;;;;;;;3.75;2.67;;;;;;;15.41;97.16;100160.91;6284079;28;20503;-78
2021/10/31 12:47:42;;;;;;;2.42;1.50;;;;;;;15.40;98.18;100161.88;6292924;28;20178;-78
2021/10/31 12:50:49;;;;;;;2.35;1.60;;;;;;;15.31;98.03;100149.41;6300330;28;20435;-76
2021/10/31 12:53:50;;;;;;;3.22;1.38;;;;;;;15.51;98.39;100142.44;6293853;28;20565;-78
2021/10/31 12:56:52;;;;;;;1.75;1.20;;;;;;;15.65;96.96;100139.50;6296035;28;20052;-79
2021/10/31 12:59:56;;;;;;;3.35;1.88;;;;;;;15.89;95.93;100130.44;6304038;28;20056;-79
2021/10/31 13:02:59;;;;;;;1.80;1.30;;;;;;;15.82;96.49;100124.81;6303712;28;20052;-79
2021/10/31 13:06:02;;;;;;;2.00;1.50;;;;;;;15.85;94.72;100123.72;6293780;28;20045;-78
2021/10/31 13:09:05;;;;;;;3.17;1.67;;;;;;;15.96;95.95;100113.03;6253949;28;20053;-78
2021/10/31 13:12:22;;;;;;;3.15;1.30;;;;;;;16.00;94.98;100108.31;6284890;28;20045;-78
2021/10/31 13:15:26;;;;;;;2.33;1.15;;;;;;;16.08;95.47;100101.41;6302899;28;20079;-78
2021/10/31 13:18:29;;;;;;;1.52;1.33;;;;;;;15.97;95.29;100098.81;6286260;28;20092;-79
2021/10/31 13:21:33;;;;;;;1.25;1.00;;;;;;;15.78;95.76;100102.22;6278312;28;20408;-79
2021/10/31 13:24:36;;;;;;;1.88;1.15;;;;;;;15.67;95.25;100105.78;6277613;28;20052;-79
2021/10/31 13:27:43;;;;;;;1.88;1.10;;;;;;;15.57;99.14;100080.16;6278180;28;20106;-78
2021/10/31 13:31:02;;;;;;;2.88;1.35;;;;;;;15.43;100.00;100079.50;6276075;28;20093;-79
2021/10/31 13:34:07;;;;;;;4.45;1.30;;;;;;;15.37;100.00;100076.56;6280350;28;20210;-79
2021/10/31 13:37:11;;;;;;;1.63;1.30;;;;;;;15.36;100.00;100067.78;6277091;28;20520;-78
2021/10/31 13:40:14;;;;;;;1.67;1.05;;;;;;;15.39;100.00;100064.00;6274948;28;20045;-78
2021/10/31 13:43:15;;;;;;;1.50;0.95;;;;;;;15.27;100.00;100054.47;6275726;28;20535;-78
2021/10/31 13:46:17;;;;;;;1.33;1.15;;;;;;;15.36;100.00;100048.41;6277875;28;20049;-80
2021/10/31 13:49:18;;;;;;;1.50;1.00;;;;;;;15.35;100.00;100047.56;6284314;28;20045;-80
2021/10/31 13:52:21;;;;;;;2.90;1.23;;;;;;;15.36;100.00;100038.66;6282060;28;20044;-79
2021/10/31 13:55:24;;;;;;;2.20;1.45;;;;;;;15.38;100.00;100036.69;6283628;28;20543;-79
2021/10/31 13:58:25;;;;;;;1.00;0.80;;;;;;;15.30;100.00;100048.91;6284934;28;20045;-80
2021/10/31 14:01:32;;;;;;;2.03;1.00;;;;;;;15.27;100.00;100036.78;6283552;28;20049;-79
2021/10/31 14:04:34;;;;;;;2.10;1.10;;;;;;;15.21;100.00;100037.28;6284907;28;20602;-80